createdAt,value
2023-04-02T00:01:41.426Z,99172.77
2023-04-02T00:04:40.995Z,99173.98
2023-04-02T00:07:31.277Z,99168.54
2023-04-02T00:10:05.218Z,99171.97
2023-04-02T00:12:40.762Z,99175.08
2023-04-02T00:18:25.945Z,99174.25
2023-04-02T00:21:24.439Z,99178.31
2023-04-02T00:23:57.061Z,99178.98
2023-04-02T00:26:40.652Z,99177.11
2023-04-02T00:29:13.535Z,99176.83
2023-04-02T00:31:49.393Z,99178.33
2023-04-02T00:34:28.797Z,99176.62
2023-04-02T00:37:02.454Z,99174.30
2023-04-02T00:39:43.792Z,99176.76
2023-04-02T00:42:22.285Z,99174.96
2023-04-02T00:44:58.632Z,99173.91
2023-04-02T00:47:39.272Z,99171.80
2023-04-02T00:50:28.628Z,99174.11
2023-04-02T00:53:06.186Z,99176.48
2023-04-02T00:55:39.494Z,99179.44
2023-04-02T00:59:05.863Z,99181.12
2023-04-02T01:01:46.427Z,99183.04
2023-04-02T01:04:36.097Z,99184.30
2023-04-02T01:07:09.978Z,99183.61
2023-04-02T01:09:53.135Z,99181.70
2023-04-02T01:12:47.887Z,99181.26
2023-04-02T01:15:50.110Z,99178.06
2023-04-02T01:18:41.124Z,99176.48
2023-04-02T01:21:43.342Z,99179.48
2023-04-02T01:24:17.061Z,99178.93
2023-04-02T01:27:14.376Z,99180.99
2023-04-02T01:29:53.929Z,99184.83
2023-04-02T01:32:25.037Z,99187.45
2023-04-02T01:34:57.292Z,99184.31
2023-04-02T01:37:39.757Z,99183.43
2023-04-02T01:40:36.728Z,99181.32
2023-04-02T01:43:50.453Z,99182.61
2023-04-02T01:46:34.656Z,99185.52
2023-04-02T01:49:28.367Z,99188.05
2023-04-02T01:52:03.853Z,99187.93
2023-04-02T01:54:34.723Z,99186.70
2023-04-02T01:57:10.487Z,99191.70
2023-04-02T01:59:44.184Z,99193.81
2023-04-02T02:02:16.728Z,99192.77
2023-04-02T02:04:50.190Z,99191.17
2023-04-02T02:07:20.829Z,99192.88
2023-04-02T02:09:55.151Z,99193.65
2023-04-02T02:12:34.569Z,99192.52
2023-04-02T02:15:05.058Z,99192.20
2023-04-02T02:17:42.110Z,99194.55
2023-04-02T02:20:16.004Z,99193.08
2023-04-02T02:22:54.554Z,99190.80
2023-04-02T02:25:27.745Z,99192.92
2023-04-02T02:28:09.921Z,99196.59
2023-04-02T02:31:01.593Z,99198.98
2023-04-02T02:33:44.138Z,99197.17
2023-04-02T02:36:44.496Z,99201.25
2023-04-02T02:39:16.360Z,99193.56
2023-04-02T02:42:41.247Z,99192.08
2023-04-02T02:45:19.393Z,99191.67
2023-04-02T02:47:55.558Z,99193.77
2023-04-02T02:50:34.334Z,99191.92
2023-04-02T02:53:09.151Z,99190.64
2023-04-02T02:55:43.596Z,99192.58
2023-04-02T02:58:33.779Z,99200.75
2023-04-02T03:01:11.833Z,99199.30
2023-04-02T03:03:45.104Z,99199.08
2023-04-02T03:06:37.011Z,99196.69
2023-04-02T03:09:28.374Z,99200.63
2023-04-02T03:12:31.947Z,99201.20
2023-04-02T03:15:26.843Z,99202.52
2023-04-02T03:18:03.026Z,99205.00
2023-04-02T03:21:02.973Z,99208.15
2023-04-02T03:23:37.690Z,99205.58
2023-04-02T03:26:25.505Z,99206.77
2023-04-02T03:29:06.366Z,99212.36
2023-04-02T03:31:41.405Z,99214.27
2023-04-02T03:34:30.481Z,99209.98
2023-04-02T03:37:08.889Z,99211.58
2023-04-02T03:40:23.962Z,99210.69
2023-04-02T03:43:01.502Z,99209.63
2023-04-02T03:45:52.883Z,99215.91
2023-04-02T03:48:36.781Z,99216.15
2023-04-02T03:51:51.645Z,99217.69
2023-04-02T03:54:24.026Z,99219.78
2023-04-02T03:57:00.574Z,99217.20
2023-04-02T03:59:55.186Z,99214.95
2023-04-02T04:03:16.312Z,99213.56
2023-04-02T04:05:57.949Z,99212.25
2023-04-02T04:08:42.770Z,99215.70
2023-04-02T04:11:30.890Z,99223.68
2023-04-02T04:14:33.007Z,99220.67
2023-04-02T04:17:36.317Z,99226.68
2023-04-02T04:20:35.673Z,99227.75
2023-04-02T04:23:43.419Z,99226.75
2023-04-02T04:26:49.889Z,99233.05
2023-04-02T04:29:54.546Z,99230.55
2023-04-02T04:32:35.097Z,99233.52
2023-04-02T04:35:35.462Z,99230.98
2023-04-02T04:38:44.776Z,99229.00
2023-04-02T04:41:24.613Z,99229.30
2023-04-02T04:44:23.610Z,99228.58
2023-04-02T04:47:12.483Z,99229.60
2023-04-02T04:50:36.552Z,99234.45
2023-04-02T04:53:18.543Z,99240.56
2023-04-02T04:56:05.924Z,99239.88
2023-04-02T04:59:13.335Z,99241.64
2023-04-02T05:01:52.237Z,99245.09
2023-04-02T05:04:35.332Z,99248.08
2023-04-02T05:07:45.236Z,99245.52
2023-04-02T05:11:04.164Z,99247.70
2023-04-02T05:13:58.307Z,99243.23
2023-04-02T05:16:55.482Z,99247.11
2023-04-02T05:20:19.969Z,99249.17
2023-04-02T05:23:27.294Z,99250.16
2023-04-02T05:26:17.454Z,99250.29
2023-04-02T05:30:23.404Z,99248.89
2023-04-02T05:33:34.333Z,99251.21
2023-04-02T05:36:20.049Z,99248.00
2023-04-02T05:39:06.467Z,99245.67
2023-04-02T05:41:59.494Z,99250.30
2023-04-02T05:44:42.764Z,99247.23
2023-04-02T05:47:27.513Z,99255.31
2023-04-02T05:50:19.647Z,99253.98
2023-04-02T05:53:12.167Z,99254.10
2023-04-02T05:56:02.602Z,99258.45
2023-04-02T05:58:42.554Z,99258.52
2023-04-02T06:02:00.570Z,99259.30
2023-04-02T06:05:00.196Z,99263.09
2023-04-02T06:07:59.249Z,99262.98
2023-04-02T06:11:08.385Z,99262.84
2023-04-02T06:14:22.634Z,99259.52
2023-04-02T06:17:04.948Z,99273.27
2023-04-02T06:19:43.496Z,99277.98
2023-04-02T06:22:33.758Z,99279.27
2023-04-02T06:25:26.403Z,99274.18
2023-04-02T06:28:00.826Z,99277.69
2023-04-02T06:30:42.874Z,99276.68
2023-04-02T06:33:21.612Z,99273.38
2023-04-02T06:35:56.151Z,99272.97
2023-04-02T06:38:32.911Z,99279.23
2023-04-02T06:41:09.715Z,99282.35
2023-04-02T06:44:30.465Z,99292.21
2023-04-02T06:47:39.376Z,99290.25
2023-04-02T06:51:07.410Z,99295.45
2023-04-02T06:53:49.291Z,99292.11
2023-04-02T06:56:52.840Z,99292.30
2023-04-02T06:59:41.561Z,99297.39
2023-04-02T07:02:37.805Z,99297.11
2023-04-02T07:05:11.853Z,99296.20
2023-04-02T07:07:53.781Z,99296.70
2023-04-02T07:10:27.423Z,99296.40
2023-04-02T07:13:07.288Z,99297.30
2023-04-02T07:15:44.464Z,99295.73
2023-04-02T07:18:34.229Z,99295.11
2023-04-02T07:21:13.921Z,99296.05
2023-04-02T07:23:53.050Z,99293.73
2023-04-02T07:26:33.235Z,99293.31
2023-04-02T07:29:16.720Z,99296.17
2023-04-02T07:31:49.697Z,99295.95
2023-04-02T07:34:23.688Z,99292.90
2023-04-02T07:37:05.524Z,99287.85
2023-04-02T07:39:37.219Z,99285.58
2023-04-02T07:42:17.351Z,99282.56
2023-04-02T07:44:54.999Z,99290.80
2023-04-02T07:47:29.487Z,99294.38
2023-04-02T07:50:06.624Z,99291.94
2023-04-02T07:52:47.975Z,99289.14
2023-04-02T07:55:49.249Z,99289.31
2023-04-02T07:58:31.970Z,99285.48
2023-04-02T08:01:20.538Z,99287.59
2023-04-02T08:04:04.081Z,99286.95
2023-04-02T08:06:39.218Z,99287.11
2023-04-02T08:09:18.393Z,99289.11
2023-04-02T08:11:51.611Z,99290.79
2023-04-02T08:14:53.708Z,99285.73
2023-04-02T08:17:31.706Z,99287.52
2023-04-02T08:20:02.188Z,99288.86
2023-04-02T08:22:38.125Z,99287.95
2023-04-02T08:25:13.758Z,99284.23
2023-04-02T08:27:44.707Z,99286.11
2023-04-02T08:30:17.363Z,99283.49
2023-04-02T08:32:50.676Z,99289.50
2023-04-02T08:35:25.218Z,99294.67
2023-04-02T08:37:58.237Z,99296.54
2023-04-02T08:40:43.934Z,99303.70
2023-04-02T08:44:08.209Z,99305.02
2023-04-02T08:47:05.573Z,99301.50
2023-04-02T08:49:58.166Z,99308.30
2023-04-02T08:52:40.743Z,99315.67
2023-04-02T08:55:49.603Z,99313.68
2023-04-02T08:58:51.937Z,99309.95
2023-04-02T09:02:14.232Z,99313.40
2023-04-02T09:05:02.312Z,99312.76
2023-04-02T09:07:41.276Z,99311.70
2023-04-02T09:10:17.981Z,99308.05
2023-04-02T09:13:26.556Z,99306.27
2023-04-02T09:16:18.575Z,99309.54
2023-04-02T09:18:56.365Z,99308.55
2023-04-02T09:21:52.227Z,99309.41
2023-04-02T09:24:23.804Z,99308.59
2023-04-02T09:27:02.414Z,99306.61
2023-04-02T09:29:47.432Z,99307.39
2023-04-02T09:32:37.934Z,99310.46
2023-04-02T09:35:22.448Z,99309.66
2023-04-02T09:38:30.948Z,99302.91
2023-04-02T09:41:21.944Z,99302.77
2023-04-02T09:43:54.205Z,99300.04
2023-04-02T09:46:32.510Z,99305.29
2023-04-02T09:49:07.436Z,99302.26
2023-04-02T09:51:52.000Z,99309.73
2023-04-02T09:54:23.925Z,99306.34
2023-04-02T09:57:07.653Z,99310.17
2023-04-02T09:59:41.838Z,99307.56
2023-04-02T10:02:38.791Z,99310.77
2023-04-02T10:05:30.199Z,99306.65
2023-04-02T10:08:31.916Z,99300.23
2023-04-02T10:11:12.720Z,99300.29
2023-04-02T10:14:01.250Z,99299.98
2023-04-02T10:16:55.720Z,99299.76
2023-04-02T10:19:44.354Z,99301.77
2023-04-02T10:22:27.299Z,99306.71
2023-04-02T10:25:00.548Z,99305.92
2023-04-02T10:28:05.268Z,99311.36
2023-04-02T10:31:25.411Z,99313.23
2023-04-02T10:34:27.687Z,99312.08
2023-04-02T10:37:08.868Z,99304.60
2023-04-02T10:39:45.217Z,99309.36
2023-04-02T10:42:45.223Z,99307.18
2023-04-02T10:45:46.369Z,99299.73
2023-04-02T10:48:41.748Z,99310.45
2023-04-02T10:51:54.874Z,99311.02
2023-04-02T10:54:54.903Z,99316.02
2023-04-02T10:57:41.901Z,99317.14
2023-04-02T11:00:17.056Z,99316.15
2023-04-02T11:03:25.958Z,99316.22
2023-04-02T11:06:00.290Z,99318.13
2023-04-02T11:09:02.339Z,99319.61
2023-04-02T11:11:40.274Z,99318.48
2023-04-02T11:14:28.024Z,99320.89
2023-04-02T11:17:03.197Z,99323.70
2023-04-02T11:19:33.738Z,99318.70
2023-04-02T11:22:23.147Z,99318.36
2023-04-02T11:25:10.759Z,99318.48
2023-04-02T11:28:27.452Z,99318.69
2023-04-02T11:31:30.466Z,99319.79
2023-04-02T11:35:06.402Z,99317.56
2023-04-02T11:37:47.156Z,99317.13
2023-04-02T11:41:05.911Z,99320.83
2023-04-02T11:43:40.816Z,99314.54
2023-04-02T11:46:31.143Z,99318.94
2023-04-02T11:49:39.758Z,99320.38
2023-04-02T11:52:46.467Z,99317.40
2023-04-02T11:55:41.031Z,99320.98
2023-04-02T11:59:11.855Z,99323.02
2023-04-02T12:02:35.065Z,99324.17
2023-04-02T12:05:21.178Z,99329.87
2023-04-02T12:08:28.921Z,99330.43
2023-04-02T12:11:34.034Z,99333.70
2023-04-02T12:15:10.703Z,99332.77
2023-04-02T12:17:46.874Z,99341.34
2023-04-02T12:20:32.081Z,99335.17
2023-04-02T12:23:22.357Z,99337.92
2023-04-02T12:26:10.994Z,99342.38
2023-04-02T12:28:48.512Z,99344.48
2023-04-02T12:35:49.813Z,99338.93
2023-04-02T12:38:54.995Z,99341.00
2023-04-02T12:53:56.858Z,99348.23
2023-04-02T12:56:33.316Z,99346.52
2023-04-02T12:59:08.125Z,99344.60
2023-04-02T13:02:27.565Z,99345.13
2023-04-02T13:05:09.623Z,99341.34
2023-04-02T13:11:55.049Z,99343.25
2023-04-02T13:14:41.307Z,99340.56
2023-04-02T13:17:39.632Z,99340.34
2023-04-02T13:20:39.611Z,99339.30
2023-04-02T13:23:34.841Z,99340.91
2023-04-02T13:26:22.413Z,99342.06
2023-04-02T13:29:39.520Z,99343.75
2023-04-02T13:32:16.477Z,99346.36
2023-04-02T13:34:58.453Z,99344.77
2023-04-02T13:37:39.925Z,99346.79
2023-04-02T13:40:23.415Z,99346.38
2023-04-02T13:42:59.953Z,99341.92
2023-04-02T13:45:44.108Z,99345.15
2023-04-02T13:48:23.173Z,99350.34
2023-04-02T13:54:44.672Z,99346.59
2023-04-02T13:57:20.597Z,99353.15
2023-04-02T14:00:03.296Z,99350.39
2023-04-02T14:02:54.049Z,99347.94
2023-04-02T14:15:56.477Z,99351.73
2023-04-02T14:19:10.862Z,99350.36
2023-04-02T14:22:34.113Z,99352.68
2023-04-02T14:25:36.937Z,99353.27
2023-04-02T14:28:43.864Z,99357.05
2023-04-02T14:31:47.974Z,99356.27
2023-04-02T14:34:50.643Z,99357.02
2023-04-02T14:38:27.508Z,99354.87
2023-04-02T14:41:20.864Z,99357.13
2023-04-02T14:44:11.279Z,99362.45
2023-04-02T14:46:47.204Z,99358.91
2023-04-02T14:49:42.129Z,99363.39
2023-04-02T14:52:27.749Z,99368.55
2023-04-02T14:55:18.098Z,99371.33
2023-04-02T14:57:57.688Z,99372.21
2023-04-02T15:00:44.861Z,99370.21
2023-04-02T15:03:39.121Z,99375.88
2023-04-02T15:06:25.086Z,99375.97
2023-04-02T15:09:11.392Z,99376.77
2023-04-02T15:12:29.423Z,99376.41
2023-04-02T15:15:06.166Z,99380.68
2023-04-02T15:17:49.515Z,99383.05
2023-04-02T15:20:22.702Z,99384.73
2023-04-02T15:23:19.630Z,99381.22
2023-04-02T15:25:57.832Z,99385.58
2023-04-02T15:28:39.975Z,99385.98
2023-04-02T15:31:14.606Z,99391.23
2023-04-02T15:34:21.067Z,99392.41
2023-04-02T15:37:33.172Z,99393.77
2023-04-02T15:40:31.351Z,99395.59
2023-04-02T15:43:19.343Z,99399.20
2023-04-02T15:46:21.619Z,99397.68
2023-04-02T15:49:34.909Z,99397.95
2023-04-02T15:52:48.239Z,99395.37
2023-04-02T15:55:49.627Z,99396.48
2023-04-02T15:58:33.710Z,99397.48
2023-04-02T16:04:50.570Z,99400.42
2023-04-02T16:08:19.388Z,99400.31
2023-04-02T16:10:54.431Z,99397.91
2023-04-02T16:13:38.481Z,99402.14
2023-04-02T16:16:31.947Z,99403.89
2023-04-02T16:19:40.016Z,99405.55
2023-04-02T16:22:31.153Z,99403.47
2023-04-02T16:25:33.047Z,99406.26
2023-04-02T16:28:45.810Z,99404.66
2023-04-02T16:31:28.885Z,99400.38
2023-04-02T16:34:04.706Z,99403.05
2023-04-02T16:37:02.404Z,99402.71
2023-04-02T16:40:07.586Z,99403.41
2023-04-02T16:42:57.886Z,99403.95
2023-04-02T16:45:58.194Z,99406.31
2023-04-02T16:49:23.735Z,99410.34
2023-04-02T16:52:41.284Z,99414.95
2023-04-02T16:55:42.932Z,99415.85
2023-04-02T16:59:07.921Z,99411.70
2023-04-02T17:02:33.429Z,99416.11
2023-04-02T17:05:37.580Z,99417.64
2023-04-02T17:08:20.484Z,99413.41
2023-04-02T17:11:13.796Z,99413.94
2023-04-02T17:21:27.834Z,99417.85
